| time (UTC) | temp C | wind direction | speed KPH | gust KPH | rain 1hr cm | rain 24hr cm | rain mn cm | humidity % | barometer mb |
| 20260504213019 | 25 | 312 | 6.4 | 17.7 | 0.00 | 0.00 | 0.00 | 51 | 1004.2 |
| 20260504211541 | 25 | 64 | 3.2 | 14.5 | 0.00 | 0.00 | 0.00 | 49 | 1004.4 |
| 20260504210107 | 25 | 342 | 1.6 | 19.3 | 0.00 | 0.00 | 0.00 | 51 | 1004.6 |
| 20260504204523 | 25 | 271 | 3.2 | 14.5 | 0.00 | 0.00 | 0.00 | 50 | 1004.7 |
| 20260504203106 | 25 | 336 | 3.2 | 17.7 | 0.00 | 0.00 | 0.00 | 50 | 1004.9 |
| 20260504201528 | 25 | 347 | 4.8 | 14.5 | 0.00 | 0.00 | 0.00 | 51 | 1005.1 |
| 20260504200048 | 25 | 342 | 3.2 | 17.7 | 0.00 | 0.00 | 0.00 | 52 | 1005.5 |
| 20260504194513 | 25 | 297 | 4.8 | 19.3 | 0.00 | 0.00 | 0.00 | 50 | 1005.6 |
| 20260504193057 | 25 | 20 | 4.8 | 20.9 | 0.00 | 0.00 | 0.00 | 50 | 1005.9 |
| 20260504191523 | 26 | 311 | 4.8 | 12.9 | 0.00 | 0.00 | 0.00 | 49 | 1006.2 |
| 20260504190107 | 26 | 310 | 4.8 | 12.9 | 0.00 | 0.00 | 0.00 | 49 | 1006.2 |
| 20260504184509 | 27 | 52 | 4.8 | 19.3 | 0.00 | 0.00 | 0.00 | 49 | 1006.4 |
| 20260504183035 | 27 | 313 | 4.8 | 16.1 | 0.00 | 0.00 | 0.00 | 49 | 1006.5 |
| 20260504181558 | 27 | 334 | 4.8 | 12.9 | 0.00 | 0.00 | 0.00 | 49 | 1006.5 |
| 20260504180036 | 27 | 288 | 4.8 | 19.3 | 0.00 | 0.00 | 0.00 | 47 | 1006.7 |
| 20260504174601 | 26 | 204 | 3.2 | 16.1 | 0.00 | 0.00 | 0.00 | 45 | 1007.0 |
| 20260504174501 | 26 | 360 | 4.8 | 16.1 | 0.00 | 0.00 | 0.00 | 48 | 1006.9 |
| 20260504173027 | 27 | 302 | 6.4 | 16.1 | 0.00 | 0.00 | 0.00 | 47 | 1007.1 |
| 20260504171508 | 27 | 252 | 4.8 | 16.1 | 0.00 | 0.00 | 0.00 | 44 | 1007.3 |
| 20260504081607 | 15 | 234 | 0.0 | 4.8 | 0.00 | 0.00 | 0.00 | 74 | 1008.6 |
| 20260504081503 | 15 | 234 | 0.0 | 4.8 | 0.00 | 0.00 | 0.00 | 75 | 1008.6 |
| 20260504060113 | 16 | 221 | 0.0 | 0.0 | 0.00 | 0.00 | 0.00 | 75 | 1009.6 |
| 20260504044516 | 16 | 221 | 0.0 | 0.0 | 0.00 | 0.00 | 0.00 | 73 | 1009.6 |
| 20260504043056 | 16 | 221 | 0.0 | 0.0 | 0.00 | 0.00 | 0.00 | 72 | 1009.7 |
| 20260504041514 | 17 | 221 | 0.0 | 0.0 | 0.00 | 0.00 | 0.00 | 72 | 1009.7 |
| 20260504040040 | 17 | 221 | 0.0 | 0.0 | 0.00 | 0.00 | 0.00 | 72 | 1009.9 |
| 20260504034510 | 17 | 221 | 0.0 | 0.0 | 0.00 | 0.00 | 0.00 | 71 | 1009.9 |
| 20260504033035 | 17 | 221 | 0.0 | 0.0 | 0.00 | 0.00 | 0.00 | 71 | 1009.9 |
| 20260504031559 | 17 | 221 | 0.0 | 0.0 | 0.00 | 0.00 | 0.00 | 70 | 1009.9 |
| 20260504030026 | 17 | 221 | 0.0 | 0.0 | 0.00 | 0.00 | 0.00 | 69 | 1009.8 |
| 20260504024557 | 17 | 221 | 0.0 | 0.0 | 0.00 | 0.00 | 0.00 | 68 | 1009.8 |
| 20260504023034 | 18 | 221 | 0.0 | 0.0 | 0.00 | 0.00 | 0.00 | 67 | 1009.8 |
| 20260504021504 | 18 | 221 | 0.0 | 0.0 | 0.00 | 0.00 | 0.00 | 67 | 1009.7 |
| 20260504020031 | 18 | 221 | 0.0 | 0.0 | 0.00 | 0.00 | 0.00 | 65 | 1009.6 |
| 20260504014557 | 18 | 221 | 0.0 | 0.0 | 0.00 | 0.00 | 0.00 | 64 | 1009.6 |
| 20260504013016 | 19 | 221 | 0.0 | 0.0 | 0.00 | 0.00 | 0.00 | 62 | 1009.4 |
| 20260504011540 | 20 | 221 | 0.0 | 1.6 | 0.00 | 0.00 | 0.00 | 61 | 1009.5 |
| 20260504010012 | 21 | 221 | 0.0 | 0.0 | 0.00 | 0.00 | 0.00 | 60 | 1009.4 |
| 20260504004532 | 21 | 221 | 0.0 | 3.2 | 0.00 | 0.00 | 0.00 | 59 | 1009.5 |
| 20260504003003 | 22 | 221 | 0.0 | 1.6 | 0.00 | 0.00 | 0.00 | 58 | 1009.4 |
| 20260504001546 | 23 | 221 | 0.0 | 1.6 | 0.00 | 0.00 | 0.00 | 56 | 1009.5 |
| 20260504000013 | 23 | 221 | 0.0 | 4.8 | 0.00 | 0.00 | 0.00 | 54 | 1009.7 |
| 20260503234524 | 24 | 219 | 0.0 | 4.8 | 0.00 | 0.00 | 0.00 | 49 | 1009.7 |
| 20260503233051 | 24 | 254 | 1.6 | 6.4 | 0.00 | 0.00 | 0.00 | 49 | 1009.8 |
| 20260503231600 | 25 | 293 | 3.2 | 9.7 | 0.00 | 0.00 | 0.00 | 47 | 1009.9 |
| 20260503231508 | 25 | 293 | 3.2 | 9.7 | 0.00 | 0.00 | 0.00 | 48 | 1009.8 |
| 20260503230022 | 25 | 223 | 1.6 | 4.8 | 0.00 | 0.00 | 0.00 | 47 | 1009.9 |
| 20260503224548 | 24 | 277 | 0.0 | 8.0 | 0.00 | 0.00 | 0.00 | 47 | 1009.9 |
| 20260503223009 | 24 | 304 | 1.6 | 6.4 | 0.00 | 0.00 | 0.00 | 48 | 1010.1 |
| 20260503221558 | 24 | 311 | 1.6 | 9.7 | 0.00 | 0.00 | 0.00 | 47 | 1010.3 |
| 20260503220019 | 24 | 277 | 1.6 | 6.4 | 0.00 | 0.00 | 0.00 | 47 | 1010.4 |
| 20260503214534 | 24 | 173 | 1.6 | 6.4 | 0.00 | 0.00 | 0.00 | 47 | 1010.7 |